GB-0028 weather

Morn Farm Helipad (Private)
Chickerell, England, United Kingdom

Public forecast

Using degrees Celsius for public forecast. Weather courtesy of forecast.io.

METAR (pilot weather report)

Closest report is RNAS Yeovilton, 23.6 nm (43.6 km) NNW. Retrieved 2019/07/15 19:21 UTC (0 seconds ago):

EGDY 151921Z 20007KT CAVOK 17/11 Q1021 NOSIG RMK BLU BLU

TAF (pilot weather forecast)

Forecast is more than 12 hours old.

Closest forecast is RNAS Yeovilton, 23.6 nm (43.6 km) NNW. Retrieved 2019/05/01 18:06 UTC (3 months ago):

TAF TAF EGDY 010100Z 3018/0103 CNL